createdAt,value
2018-09-28T00:02:13.515Z,98564.50
2018-09-28T00:04:41.808Z,98559.59
2018-09-28T00:07:10.111Z,98559.98
2018-09-28T00:09:38.416Z,98562.14
2018-09-28T00:12:06.708Z,98549.84
2018-09-28T00:14:35.007Z,98556.55
2018-09-28T00:17:03.319Z,98555.84
2018-09-28T00:19:31.603Z,98552.73
2018-09-28T00:21:59.904Z,98553.72
2018-09-28T00:24:28.212Z,98553.28
2018-09-28T00:26:56.507Z,98553.17
2018-09-28T00:29:24.807Z,98550.34
2018-09-28T00:31:53.115Z,98544.30
2018-09-28T00:34:21.407Z,98542.20
2018-09-28T00:36:49.723Z,98538.02
2018-09-28T00:39:18.018Z,98528.89
2018-09-28T00:41:46.307Z,98532.97
2018-09-28T00:44:14.644Z,98524.63
2018-09-28T00:46:42.943Z,98529.59
2018-09-28T00:49:11.234Z,98523.18
2018-09-28T00:51:39.539Z,98520.65
2018-09-28T00:54:08.085Z,98486.95
2018-09-28T00:56:36.374Z,98514.43
2018-09-28T00:59:04.663Z,98506.03
2018-09-28T01:01:32.975Z,98504.41
2018-09-28T01:04:01.314Z,98505.75
2018-09-28T01:06:29.609Z,98506.35
2018-09-28T01:08:57.927Z,98506.52
2018-09-28T01:11:26.232Z,98505.53
2018-09-28T01:13:54.528Z,98505.85
2018-09-28T01:16:22.828Z,98500.77
2018-09-28T01:18:51.136Z,98498.66
2018-09-28T01:21:19.431Z,98498.59
2018-09-28T01:23:47.734Z,98494.34
2018-09-28T01:26:16.035Z,98494.13
2018-09-28T01:28:44.327Z,98495.16
2018-09-28T01:31:12.644Z,98488.05
2018-09-28T01:33:40.940Z,98486.88
2018-09-28T01:36:09.230Z,98494.34
2018-09-28T01:38:37.543Z,98489.48
2018-09-28T01:41:05.839Z,98491.69
2018-09-28T01:43:34.131Z,98486.61
2018-09-28T01:46:02.444Z,98487.34
2018-09-28T01:48:30.747Z,98482.73
2018-09-28T01:50:59.047Z,98482.31
2018-09-28T01:53:27.339Z,98473.23
2018-09-28T01:55:55.651Z,98473.67
2018-09-28T01:58:23.947Z,98471.53
2018-09-28T02:00:52.243Z,98465.66
2018-09-28T02:03:20.553Z,98469.91
2018-09-28T02:05:48.842Z,98462.16
2018-09-28T02:08:17.139Z,98457.66
2018-09-28T02:10:45.447Z,98464.33
2018-09-28T02:13:13.747Z,98440.89
2018-09-28T02:15:42.094Z,98456.08
2018-09-28T02:18:10.350Z,98460.42
2018-09-28T02:20:38.643Z,98457.52
2018-09-28T02:23:06.980Z,98452.31
2018-09-28T02:25:35.276Z,98451.46
2018-09-28T02:28:03.810Z,98450.70
2018-09-28T02:30:32.119Z,98450.14
2018-09-28T02:33:00.417Z,98453.02
2018-09-28T02:35:28.717Z,98450.02
2018-09-28T02:37:57.019Z,98445.70
2018-09-28T02:40:25.311Z,98443.53
2018-09-28T02:42:53.605Z,98444.23
2018-09-28T02:45:21.919Z,98442.48
2018-09-28T02:47:50.215Z,98443.94
2018-09-28T02:50:18.513Z,98442.14
2018-09-28T02:52:46.815Z,98440.50
2018-09-28T02:55:15.112Z,98439.62
2018-09-28T02:57:43.428Z,98434.42
2018-09-28T03:00:11.730Z,98432.86
2018-09-28T03:02:40.035Z,98435.66
2018-09-28T03:05:08.344Z,98435.35
2018-09-28T03:07:36.639Z,98431.21
2018-09-28T03:10:04.955Z,98427.22
2018-09-28T03:12:33.243Z,98432.05
2018-09-28T03:15:01.541Z,98426.72
2018-09-28T03:17:29.848Z,98430.89
2018-09-28T03:19:58.136Z,98433.97
2018-09-28T03:22:26.432Z,98428.83
2018-09-28T03:24:54.736Z,98438.50
2018-09-28T03:27:23.032Z,98435.06
2018-09-28T03:29:51.324Z,98435.64
2018-09-28T03:32:19.623Z,98436.70
2018-09-28T03:34:47.924Z,98431.55
2018-09-28T03:37:16.216Z,98431.09
2018-09-28T03:39:44.519Z,98429.03
2018-09-28T03:42:12.819Z,98425.48
2018-09-28T03:44:41.110Z,98429.86
2018-09-28T03:47:09.423Z,98425.04
2018-09-28T03:49:37.722Z,98429.86
2018-09-28T03:52:06.019Z,98425.36
2018-09-28T03:54:34.327Z,98419.66
2018-09-28T03:57:02.626Z,98425.78
2018-09-28T03:59:30.919Z,98421.73
2018-09-28T04:01:59.228Z,98426.66
2018-09-28T04:04:27.519Z,98418.70
2018-09-28T04:06:55.816Z,98423.16
2018-09-28T04:09:24.120Z,98419.02
2018-09-28T04:11:52.421Z,98416.95
2018-09-28T04:14:20.725Z,98423.61
2018-09-28T04:16:49.012Z,98422.02
2018-09-28T04:19:17.326Z,98420.77
2018-09-28T04:21:45.744Z,98425.05
2018-09-28T04:24:13.991Z,98425.09
2018-09-28T04:26:42.314Z,98427.48
2018-09-28T04:29:10.608Z,98422.47
2018-09-28T04:31:38.912Z,98419.77
2018-09-28T04:34:07.207Z,98417.88
2018-09-28T04:36:35.515Z,98422.84
2018-09-28T04:39:03.815Z,98423.84
2018-09-28T04:41:32.103Z,98427.94
2018-09-28T04:44:00.411Z,98431.63
2018-09-28T04:46:28.707Z,98430.06
2018-09-28T04:48:57.023Z,98429.50
2018-09-28T04:51:25.321Z,98427.75
2018-09-28T04:53:53.639Z,98437.64
2018-09-28T04:56:21.927Z,98441.78
2018-09-28T04:58:50.221Z,98441.91
2018-09-28T05:01:18.523Z,98441.41
2018-09-28T05:03:46.814Z,98442.47
2018-09-28T05:06:15.114Z,98441.73
2018-09-28T05:08:43.412Z,98437.51
2018-09-28T05:11:11.719Z,98438.56
2018-09-28T05:13:40.011Z,98443.53
2018-09-28T05:16:08.304Z,98442.01
2018-09-28T05:18:36.613Z,98432.95
2018-09-28T05:21:04.918Z,98436.39
2018-09-28T05:23:33.219Z,98440.25
2018-09-28T05:26:01.511Z,98445.03
2018-09-28T05:28:29.834Z,98447.47
2018-09-28T05:30:58.166Z,98451.28
2018-09-28T05:33:26.431Z,98445.22
2018-09-28T05:35:54.724Z,98445.63
2018-09-28T05:38:23.023Z,98448.80
2018-09-28T05:40:51.329Z,98447.89
2018-09-28T05:43:19.618Z,98456.89
2018-09-28T05:45:47.935Z,98454.88
2018-09-28T05:48:16.231Z,98458.46
2018-09-28T05:50:44.533Z,98463.34
2018-09-28T05:53:12.839Z,98461.22
2018-09-28T05:55:41.135Z,98456.95
2018-09-28T05:58:09.447Z,98461.72
2018-09-28T06:00:43.339Z,98462.72
2018-09-28T06:03:11.649Z,98467.79
2018-09-28T06:05:39.991Z,98472.38
2018-09-28T06:08:08.231Z,98472.42
2018-09-28T06:10:36.535Z,98475.07
2018-09-28T06:13:04.831Z,98481.38
2018-09-28T06:15:33.135Z,98481.12
2018-09-28T06:18:01.528Z,98478.30
2018-09-28T06:20:29.731Z,98482.39
2018-09-28T06:22:58.019Z,98479.63
2018-09-28T06:25:26.331Z,98483.34
2018-09-28T06:27:54.632Z,98473.83
2018-09-28T06:30:22.940Z,98475.32
2018-09-28T06:32:51.285Z,98473.25
2018-09-28T06:35:19.582Z,98482.52
2018-09-28T06:37:47.907Z,98475.02
2018-09-28T06:40:16.232Z,98483.31
2018-09-28T06:42:44.532Z,98483.08
2018-09-28T06:45:12.826Z,98481.88
2018-09-28T06:47:41.152Z,98491.63
2018-09-28T06:50:09.423Z,98497.09
2018-09-28T06:52:37.743Z,98497.75
2018-09-28T06:55:06.035Z,98500.24
2018-09-28T06:57:34.353Z,98504.22
2018-09-28T07:00:02.691Z,98500.91
2018-09-28T07:02:31.022Z,98505.38
2018-09-28T07:04:59.636Z,98510.29
2018-09-28T07:07:27.922Z,98488.16
2018-09-28T07:09:56.231Z,98512.00
2018-09-28T07:12:24.524Z,98509.18
2018-09-28T07:14:52.853Z,98509.09
2018-09-28T07:17:21.131Z,98515.61
2018-09-28T07:19:49.423Z,98517.89
2018-09-28T07:22:17.731Z,98511.45
2018-09-28T07:24:46.144Z,98510.57
2018-09-28T07:27:14.406Z,98504.30
2018-09-28T07:29:42.759Z,98507.89
2018-09-28T07:32:11.047Z,98514.23
2018-09-28T07:34:39.439Z,98514.23
2018-09-28T07:37:07.902Z,98513.19
2018-09-28T07:39:36.039Z,98516.12
2018-09-28T07:42:04.381Z,98517.44
2018-09-28T07:44:32.655Z,98525.42
2018-09-28T07:47:00.963Z,98521.48
2018-09-28T07:49:29.262Z,98521.02
2018-09-28T07:51:57.569Z,98518.51
2018-09-28T07:54:25.863Z,98521.64
2018-09-28T07:56:54.157Z,98526.99
2018-09-28T07:59:22.447Z,98520.83
2018-09-28T08:01:50.743Z,98522.50
2018-09-28T08:04:19.055Z,98520.44
2018-09-28T08:06:47.372Z,98522.42
2018-09-28T08:09:15.665Z,98521.08
2018-09-28T08:11:43.959Z,98521.81
2018-09-28T08:14:12.263Z,98522.47
2018-09-28T08:16:40.555Z,98525.20
2018-09-28T08:19:08.859Z,98519.62
2018-09-28T08:21:37.147Z,98516.78
2018-09-28T08:24:05.442Z,98517.38
2018-09-28T08:26:33.734Z,98511.56
2018-09-28T08:29:02.028Z,98508.72
2018-09-28T08:31:30.331Z,98510.86
2018-09-28T08:33:58.614Z,98516.94
2018-09-28T08:36:27.017Z,98515.33
2018-09-28T08:38:55.207Z,98516.41
2018-09-28T08:41:23.517Z,98510.61
2018-09-28T08:43:51.795Z,98510.88
2018-09-28T08:46:20.090Z,98505.22
2018-09-28T08:48:48.395Z,98514.48
2018-09-28T08:51:16.691Z,98514.50
2018-09-28T08:53:44.995Z,98519.82
2018-09-28T08:56:13.323Z,98519.00
2018-09-28T08:58:41.599Z,98526.89
2018-09-28T09:01:09.908Z,98528.39
2018-09-28T09:03:38.206Z,98524.20
2018-09-28T09:06:06.503Z,98526.17
2018-09-28T09:08:34.787Z,98519.77
2018-09-28T09:11:03.095Z,98525.17
2018-09-28T09:13:31.387Z,98520.50
2018-09-28T09:15:59.679Z,98531.09
2018-09-28T09:18:27.995Z,98520.97
2018-09-28T09:20:56.295Z,98526.73
2018-09-28T09:23:24.583Z,98526.35
2018-09-28T09:25:52.872Z,98523.56
2018-09-28T09:28:21.177Z,98513.08
2018-09-28T09:30:49.459Z,98508.59
2018-09-28T09:33:17.755Z,98520.02
2018-09-28T09:35:46.049Z,98513.32
2018-09-28T09:38:14.346Z,98517.23
2018-09-28T09:40:42.642Z,98511.05
2018-09-28T09:43:10.936Z,98489.42
2018-09-28T09:45:39.223Z,98505.96
2018-09-28T09:48:07.519Z,98497.63
2018-09-28T09:50:35.811Z,98487.08
2018-09-28T09:53:04.114Z,98494.26
2018-09-28T09:55:32.399Z,98499.81
2018-09-28T09:58:00.730Z,98501.47
2018-09-28T10:00:28.995Z,98502.55
2018-09-28T10:03:00.083Z,98498.49
2018-09-28T10:05:28.371Z,98491.80
2018-09-28T10:07:56.659Z,98488.69
2018-09-28T10:10:24.955Z,98485.70
2018-09-28T10:12:53.261Z,98487.64
2018-09-28T10:15:21.552Z,98483.09
2018-09-28T10:17:49.891Z,98495.58
2018-09-28T10:20:18.229Z,98492.44
2018-09-28T10:22:46.506Z,98487.57
2018-09-28T10:25:14.800Z,98482.94
2018-09-28T10:27:43.193Z,98481.55
2018-09-28T10:30:11.433Z,98473.30
2018-09-28T10:32:39.741Z,98471.78
2018-09-28T10:35:08.063Z,98466.47
2018-09-28T10:37:36.350Z,98469.91
2018-09-28T10:40:04.655Z,98462.10
2018-09-28T10:42:32.951Z,98465.73
2018-09-28T10:45:01.252Z,98460.87
2018-09-28T10:47:29.599Z,98459.51
2018-09-28T10:49:57.915Z,98457.02
2018-09-28T10:52:26.423Z,98458.66
2018-09-28T10:54:54.503Z,98450.98
2018-09-28T10:57:22.906Z,98455.96
2018-09-28T10:59:51.131Z,98456.41
2018-09-28T11:02:19.423Z,98450.25
2018-09-28T11:04:47.789Z,98446.23
2018-09-28T11:07:16.025Z,98449.23
2018-09-28T11:09:44.406Z,98444.33
2018-09-28T11:12:12.619Z,98443.89
2018-09-28T11:14:40.916Z,98442.47
2018-09-28T11:17:09.204Z,98442.77
2018-09-28T11:19:37.494Z,98438.09
2018-09-28T11:22:05.795Z,98428.55
2018-09-28T11:24:34.099Z,98426.39
2018-09-28T11:27:02.391Z,98424.06
2018-09-28T11:29:30.691Z,98427.06
2018-09-28T11:31:58.982Z,98428.88
2018-09-28T11:34:27.283Z,98421.84
2018-09-28T11:36:56.391Z,98419.28
2018-09-28T11:39:24.772Z,98417.21
2018-09-28T11:41:52.985Z,98411.16
2018-09-28T11:44:21.271Z,98413.36
2018-09-28T11:46:49.563Z,98407.73
2018-09-28T11:49:17.917Z,98410.34
2018-09-28T11:51:46.214Z,98410.49
2018-09-28T11:54:14.444Z,98405.89
2018-09-28T11:56:42.747Z,98412.20
2018-09-28T11:59:11.038Z,98409.77
2018-09-28T12:01:39.328Z,98404.61
2018-09-28T12:04:07.617Z,98404.67
2018-09-28T12:06:36.026Z,98406.67
2018-09-28T12:09:04.215Z,98399.11
2018-09-28T12:11:32.504Z,98405.81
2018-09-28T12:14:00.811Z,98400.87
2018-09-28T12:16:29.119Z,98401.98
2018-09-28T12:18:57.429Z,98398.27
2018-09-28T12:21:25.747Z,98395.67
2018-09-28T12:23:53.998Z,98382.97
2018-09-28T12:26:22.299Z,98378.78
2018-09-28T12:28:50.600Z,98372.73
2018-09-28T12:31:18.906Z,98372.88
2018-09-28T12:33:47.284Z,98375.02
2018-09-28T12:36:15.510Z,98362.84
2018-09-28T12:38:43.809Z,98367.04
2018-09-28T12:41:12.092Z,98366.12
2018-09-28T12:43:40.390Z,98368.47
2018-09-28T12:46:08.684Z,98356.62
2018-09-28T12:48:37.035Z,98364.66
2018-09-28T12:51:05.275Z,98355.08
2018-09-28T12:53:33.621Z,98361.80
2018-09-28T12:56:01.887Z,98360.13
2018-09-28T12:58:30.171Z,98356.41
2018-09-28T13:00:58.628Z,98359.54
2018-09-28T13:03:26.820Z,98356.84
2018-09-28T13:05:55.086Z,98352.41
2018-09-28T13:08:23.420Z,98345.82
2018-09-28T13:10:51.695Z,98345.81
2018-09-28T13:13:19.999Z,98343.97
2018-09-28T13:15:48.312Z,98343.03
2018-09-28T13:18:16.661Z,98348.18
2018-09-28T13:20:44.952Z,98346.34
2018-09-28T13:23:13.208Z,98340.36
2018-09-28T13:25:41.509Z,98341.52
2018-09-28T13:28:09.803Z,98340.75
2018-09-28T13:30:38.151Z,98332.39
2018-09-28T13:33:06.405Z,98335.23
2018-09-28T13:35:34.717Z,98327.89
2018-09-28T13:38:03.200Z,98326.98
2018-09-28T13:40:31.463Z,98323.89
2018-09-28T13:42:59.760Z,98322.30
2018-09-28T13:45:28.094Z,98317.86
2018-09-28T13:47:56.567Z,98319.13
2018-09-28T13:50:24.903Z,98319.89
2018-09-28T13:52:53.179Z,98320.41
2018-09-28T13:55:21.451Z,98314.13
2018-09-28T13:57:49.775Z,98319.41
2018-09-28T14:00:18.387Z,98318.29
2018-09-28T14:02:46.758Z,98322.49
2018-09-28T14:05:14.982Z,98321.07
2018-09-28T14:07:43.275Z,98327.28
2018-09-28T14:10:11.620Z,98325.14
2018-09-28T14:12:39.906Z,98333.48
2018-09-28T14:15:08.183Z,98329.83
2018-09-28T14:17:39.593Z,98328.98
2018-09-28T14:20:07.884Z,98337.97
2018-09-28T14:22:36.215Z,98333.88
2018-09-28T14:25:04.487Z,98334.73
2018-09-28T14:27:32.792Z,98337.03
2018-09-28T14:30:01.101Z,98342.17
2018-09-28T14:32:29.425Z,98334.70
2018-09-28T14:34:57.707Z,98330.33
2018-09-28T14:37:26.933Z,98334.94
2018-09-28T14:39:55.262Z,98332.87
2018-09-28T14:42:23.661Z,98334.33
2018-09-28T14:44:51.873Z,98323.75
2018-09-28T14:47:20.156Z,98320.84
2018-09-28T14:49:48.466Z,98324.48
2018-09-28T14:52:16.795Z,98326.89
2018-09-28T14:54:45.134Z,98329.41
2018-09-28T14:57:13.418Z,98332.83
2018-09-28T14:59:41.711Z,98327.25
2018-09-28T15:02:10.050Z,98332.27
2018-09-28T15:04:38.352Z,98332.91
2018-09-28T15:07:06.627Z,98341.41
2018-09-28T15:09:34.936Z,98333.92
2018-09-28T15:12:03.218Z,98337.63
2018-09-28T15:14:31.556Z,98334.98
2018-09-28T15:16:59.815Z,98343.07
2018-09-28T15:19:28.134Z,98337.09
2018-09-28T15:21:56.444Z,98343.66
2018-09-28T15:24:24.739Z,98340.53
2018-09-28T15:26:53.197Z,98340.63
2018-09-28T15:29:21.460Z,98336.11
2018-09-28T15:31:49.779Z,98336.55
2018-09-28T15:34:18.063Z,98330.80
2018-09-28T15:36:46.376Z,98330.72
2018-09-28T15:39:14.672Z,98329.34
2018-09-28T15:41:42.958Z,98341.24
2018-09-28T15:44:11.261Z,98341.01
2018-09-28T15:46:39.551Z,98342.38
2018-09-28T15:49:07.903Z,98344.94
2018-09-28T15:51:36.160Z,98344.73
2018-09-28T15:54:04.443Z,98346.69
2018-09-28T15:56:32.760Z,98350.66
2018-09-28T15:59:01.043Z,98350.56
2018-09-28T16:01:29.414Z,98352.44
2018-09-28T16:03:59.420Z,98354.36
2018-09-28T16:06:28.666Z,98349.78
2018-09-28T16:08:56.975Z,98353.92
2018-09-28T16:11:25.267Z,98354.96
2018-09-28T16:13:53.571Z,98356.97
2018-09-28T16:16:21.859Z,98360.77
2018-09-28T16:18:50.195Z,98356.72
2018-09-28T16:21:18.511Z,98362.91
2018-09-28T16:23:46.770Z,98365.92
2018-09-28T16:26:15.071Z,98366.00
2018-09-28T16:28:43.376Z,98372.94
2018-09-28T16:31:12.647Z,98371.90
2018-09-28T16:33:40.949Z,98374.18
2018-09-28T16:36:09.511Z,98373.45
2018-09-28T16:38:37.918Z,98385.52
2018-09-28T16:41:06.294Z,98381.33
2018-09-28T16:43:34.574Z,98380.10
2018-09-28T16:46:04.244Z,98392.61
2018-09-28T16:48:32.543Z,98392.75
2018-09-28T16:51:00.847Z,98396.36
2018-09-28T16:53:29.143Z,98407.61
2018-09-28T16:55:57.461Z,98401.41
2018-09-28T16:58:25.747Z,98402.23
2018-09-28T17:00:54.347Z,98409.21
2018-09-28T17:03:22.663Z,98408.63
2018-09-28T17:05:50.939Z,98410.02
2018-09-28T17:08:19.253Z,98420.30
2018-09-28T17:10:47.539Z,98418.98
2018-09-28T17:13:16.448Z,98418.55
2018-09-28T17:15:44.740Z,98423.95
2018-09-28T17:18:13.039Z,98428.44
2018-09-28T17:20:41.353Z,98427.09
2018-09-28T17:23:09.643Z,98431.29
2018-09-28T17:25:37.938Z,98441.08
2018-09-28T17:28:06.308Z,98435.66
2018-09-28T17:30:34.573Z,98450.20
2018-09-28T17:33:02.882Z,98451.06
2018-09-28T17:35:31.183Z,98455.67
2018-09-28T17:37:59.479Z,98461.78
2018-09-28T17:40:27.856Z,98466.88
2018-09-28T17:42:56.156Z,98469.74
2018-09-28T17:45:24.448Z,98477.25
2018-09-28T17:47:52.746Z,98482.01
2018-09-28T17:50:21.040Z,98487.36
2018-09-28T17:52:50.229Z,98495.28
2018-09-28T17:55:18.511Z,98499.95
2018-09-28T17:57:46.848Z,98506.07
2018-09-28T18:00:15.132Z,98513.83
2018-09-28T18:02:43.435Z,98514.00
2018-09-28T18:05:11.752Z,98524.72
2018-09-28T18:07:40.042Z,98529.83
2018-09-28T18:10:08.355Z,98524.53
2018-09-28T18:12:36.694Z,98528.78
2018-09-28T18:15:05.029Z,98547.25
2018-09-28T18:17:33.323Z,98533.45
2018-09-28T18:20:01.650Z,98541.74
2018-09-28T18:22:29.995Z,98556.70
2018-09-28T18:24:58.212Z,98562.28
2018-09-28T18:27:26.714Z,98566.71
2018-09-28T18:29:55.001Z,98571.81
2018-09-28T18:32:23.304Z,98559.52
2018-09-28T18:34:51.601Z,98569.52
2018-09-28T18:37:19.938Z,98566.79
2018-09-28T18:39:48.187Z,98580.60
2018-09-28T18:42:25.250Z,98594.58
2018-09-28T18:44:53.595Z,98591.69
2018-09-28T18:47:21.870Z,98614.64
2018-09-28T18:49:50.232Z,98618.05
2018-09-28T18:52:18.523Z,98622.79
2018-09-28T18:54:46.817Z,98623.20
2018-09-28T18:57:15.113Z,98639.50
2018-09-28T18:59:43.428Z,98642.47
2018-09-28T19:02:11.731Z,98656.84
2018-09-28T19:04:40.028Z,98648.94
2018-09-28T19:07:08.397Z,98674.31
2018-09-28T19:09:36.667Z,98670.96
2018-09-28T19:12:04.974Z,98679.34
2018-09-28T19:14:33.321Z,98682.98
2018-09-28T19:17:01.605Z,98685.03
2018-09-28T19:19:29.969Z,98681.80
2018-09-28T19:21:58.251Z,98691.30
2018-09-28T19:24:26.819Z,98701.08
2018-09-28T19:26:55.338Z,98708.81
2018-09-28T19:29:23.631Z,98716.11
2018-09-28T19:31:51.919Z,98720.97
2018-09-28T19:34:20.227Z,98726.95
2018-09-28T19:36:48.542Z,98732.78
2018-09-28T19:39:16.847Z,98742.88
2018-09-28T19:41:45.233Z,98742.20
2018-09-28T19:44:13.499Z,98749.83
2018-09-28T19:46:41.812Z,98753.36
2018-09-28T19:49:10.127Z,98759.92
2018-09-28T19:51:38.440Z,98767.80
2018-09-28T19:54:06.791Z,98779.50
2018-09-28T19:56:35.091Z,98772.27
2018-09-28T19:59:05.905Z,98791.20
2018-09-28T20:01:34.179Z,98786.03
2018-09-28T20:04:02.893Z,98781.64
2018-09-28T20:06:31.272Z,98787.75
2018-09-28T20:08:59.572Z,98791.20
2018-09-28T20:11:28.212Z,98799.78
2018-09-28T20:13:56.522Z,98804.17
2018-09-28T20:16:25.314Z,98820.17
2018-09-28T20:18:53.636Z,98819.97
2018-09-28T20:21:21.970Z,98815.00
2018-09-28T20:23:50.276Z,98823.66
2018-09-28T20:26:18.771Z,98823.24
2018-09-28T20:28:47.147Z,98833.02
2018-09-28T20:31:16.498Z,98840.02
2018-09-28T20:33:44.837Z,98846.29
2018-09-28T20:36:13.132Z,98846.91
2018-09-28T20:38:41.428Z,98852.28
2018-09-28T20:41:11.563Z,98841.73
2018-09-28T20:43:39.867Z,98848.76
2018-09-28T20:46:08.215Z,98856.10
2018-09-28T20:48:36.523Z,98853.16
2018-09-28T20:51:04.832Z,98859.05
2018-09-28T20:53:33.203Z,98846.64
2018-09-28T20:56:01.502Z,98847.73
2018-09-28T20:58:30.011Z,98851.03
2018-09-28T21:00:58.362Z,98848.08
2018-09-28T21:03:26.786Z,98857.60
2018-09-28T21:05:55.066Z,98856.72
2018-09-28T21:08:23.372Z,98863.20
2018-09-28T21:10:51.709Z,98867.06
2018-09-28T21:13:20.024Z,98868.94
2018-09-28T21:15:48.298Z,98866.49
2018-09-28T21:18:16.611Z,98867.73
2018-09-28T21:20:44.912Z,98867.93
2018-09-28T21:23:13.222Z,98866.88
2018-09-28T21:25:41.515Z,98867.05
2018-09-28T21:28:09.819Z,98859.92
2018-09-28T21:30:38.559Z,98850.73
2018-09-28T21:33:06.864Z,98849.64
2018-09-28T21:35:35.253Z,98855.20
2018-09-28T21:38:03.483Z,98854.91
2018-09-28T21:40:31.792Z,98858.48
2018-09-28T21:43:00.090Z,98862.39
2018-09-28T21:45:28.400Z,98863.72
2018-09-28T21:47:56.715Z,98845.93
2018-09-28T21:50:25.027Z,98853.62
2018-09-28T21:52:53.328Z,98849.80
2018-09-28T21:55:21.639Z,98852.68
2018-09-28T21:57:49.932Z,98843.84
2018-09-28T22:00:18.244Z,98853.89
2018-09-28T22:02:46.535Z,98857.53
2018-09-28T22:05:14.839Z,98862.75
2018-09-28T22:07:43.138Z,98871.23
2018-09-28T22:10:11.464Z,98870.94
2018-09-28T22:12:39.936Z,98867.75
2018-09-28T22:15:08.244Z,98870.84
2018-09-28T22:17:36.553Z,98876.94
2018-09-28T22:20:04.893Z,98874.91
2018-09-28T22:22:33.197Z,98869.19
2018-09-28T22:25:01.491Z,98872.02
2018-09-28T22:27:29.803Z,98872.78
2018-09-28T22:29:58.142Z,98870.84
2018-09-28T22:32:26.455Z,98867.86
2018-09-28T22:34:54.770Z,98864.13
2018-09-28T22:37:23.091Z,98858.77
2018-09-28T22:39:51.411Z,98866.42
2018-09-28T22:42:19.699Z,98866.89
2018-09-28T22:44:47.989Z,98864.36
2018-09-28T22:54:13.653Z,98875.75
2018-09-28T22:56:43.993Z,98874.28
2018-09-28T22:59:12.314Z,98876.75
2018-09-28T23:01:41.544Z,98882.11
2018-09-28T23:04:13.220Z,98889.13
2018-09-28T23:06:43.531Z,98891.80
2018-09-28T23:09:13.888Z,98901.34
2018-09-28T23:11:42.204Z,98899.27
2018-09-28T23:14:10.515Z,98909.28
2018-09-28T23:16:39.840Z,98911.97
2018-09-28T23:19:08.146Z,98917.32
2018-09-28T23:21:37.430Z,98921.16
2018-09-28T23:24:05.693Z,98918.15
2018-09-28T23:26:36.047Z,98916.77
2018-09-28T23:29:04.428Z,98910.72
2018-09-28T23:31:32.745Z,98923.41
2018-09-28T23:34:01.092Z,98920.97
2018-09-28T23:36:29.406Z,98916.63
2018-09-28T23:38:57.727Z,98925.63
2018-09-28T23:41:26.064Z,98924.19
2018-09-28T23:43:54.412Z,98921.34
2018-09-28T23:46:23.756Z,98923.36
2018-09-28T23:48:52.111Z,98926.00
2018-09-28T23:51:20.412Z,98930.41
2018-09-28T23:53:48.710Z,98932.67
2018-09-28T23:56:17.008Z,98925.48
2018-09-28T23:58:45.300Z,98928.52
